createdAt,value
2023-03-13T06:19:54.973Z,100.00
2023-03-13T06:29:54.954Z,100.00
2023-03-13T06:39:55.060Z,100.00
2023-03-13T06:49:55.131Z,100.00
2023-03-13T06:59:55.113Z,100.00
2023-03-13T07:09:55.152Z,100.00
2023-03-13T07:19:55.135Z,100.00
2023-03-13T07:29:55.085Z,100.00
2023-03-13T07:39:55.156Z,100.00
2023-03-13T07:49:55.101Z,100.00
2023-03-13T07:59:55.104Z,100.00
2023-03-13T08:09:55.136Z,100.00
2023-03-13T08:19:55.098Z,100.00
2023-03-13T08:29:55.173Z,100.00
2023-03-13T08:39:55.350Z,100.00
2023-03-13T08:49:55.415Z,100.00
2023-03-13T08:59:55.375Z,100.00
2023-03-13T09:09:55.124Z,100.00
2023-03-13T09:20:00.621Z,100.00
2023-03-13T09:29:55.377Z,100.00
2023-03-13T09:39:55.225Z,100.00
2023-03-13T09:49:55.413Z,100.00
2023-03-13T09:59:55.163Z,100.00
2023-03-13T10:09:55.311Z,100.00
2023-03-13T10:19:55.392Z,100.00
2023-03-13T10:29:55.357Z,100.00
2023-03-13T10:39:55.201Z,100.00
2023-03-13T10:49:55.233Z,100.00
2023-03-13T10:59:55.227Z,100.00
2023-03-13T11:09:55.191Z,100.00
2023-03-13T11:19:55.060Z,100.00
2023-03-13T11:29:55.233Z,100.00
2023-03-13T11:39:55.298Z,100.00
2023-03-13T11:49:55.147Z,100.00
2023-03-13T11:59:55.428Z,100.00
2023-03-13T12:09:55.292Z,100.00
2023-03-13T12:19:55.261Z,99.29
2023-03-13T12:29:55.201Z,95.06
2023-03-13T12:39:55.120Z,88.60
2023-03-13T12:49:55.159Z,83.92
2023-03-13T12:59:55.426Z,85.06
2023-03-13T13:09:55.169Z,82.75
2023-03-13T13:19:55.246Z,83.89
2023-03-13T13:29:55.225Z,82.31
2023-03-13T13:39:55.072Z,81.61
2023-03-13T13:49:55.300Z,78.96
2023-03-13T13:59:55.299Z,72.70
2023-03-13T14:09:55.159Z,68.05
2023-03-13T14:19:55.237Z,68.29
2023-03-13T14:29:55.096Z,71.57
2023-03-13T14:39:55.377Z,71.34
2023-03-13T14:49:55.182Z,69.12
2023-03-13T14:59:55.183Z,68.21
2023-03-13T15:09:55.097Z,68.43
2023-03-13T15:19:55.238Z,70.10
2023-03-13T15:29:55.394Z,72.34
2023-03-13T15:39:55.250Z,75.98
2023-03-13T15:49:55.222Z,76.87
2023-03-13T15:59:55.385Z,75.64
2023-03-13T16:09:55.250Z,74.05
2023-03-13T16:19:55.471Z,74.15
2023-03-13T16:29:55.445Z,75.95
2023-03-13T16:39:55.467Z,76.71
2023-03-13T16:49:55.617Z,75.36
2023-03-13T16:59:55.575Z,74.90
2023-03-13T17:09:55.522Z,75.67
2023-03-13T17:19:56.604Z,78.64
2023-03-13T17:29:55.615Z,81.52
2023-03-13T17:39:55.378Z,84.51
2023-03-13T17:49:55.524Z,89.30
2023-03-13T17:59:55.476Z,93.37
2023-03-13T18:09:55.417Z,97.46
2023-03-13T18:19:55.455Z,100.00
2023-03-13T18:29:55.657Z,100.00
2023-03-13T18:39:55.377Z,100.00
2023-03-13T18:49:55.559Z,100.00
2023-03-13T18:59:55.439Z,100.00
2023-03-13T19:09:55.515Z,98.66
2023-03-13T19:19:55.503Z,97.99
